sensor_id;sensor_type;location;lat;lon;timestamp;P1;durP1;ratioP1;P2;durP2;ratioP2
33154;SDS011;19511;42.682;23.332;2022-10-16T00:01:17;11.38;;;5.50;;
33154;SDS011;19511;42.682;23.332;2022-10-16T00:03:45;14.15;;;6.00;;
33154;SDS011;19511;42.682;23.332;2022-10-16T00:06:12;11.48;;;5.63;;
33154;SDS011;19511;42.682;23.332;2022-10-16T00:08:38;12.48;;;6.50;;
33154;SDS011;19511;42.682;23.332;2022-10-16T00:11:08;13.90;;;6.18;;
33154;SDS011;19511;42.682;23.332;2022-10-16T00:13:37;21.17;;;8.13;;
33154;SDS011;19511;42.682;23.332;2022-10-16T00:16:04;20.38;;;8.68;;
33154;SDS011;19511;42.682;23.332;2022-10-16T00:18:30;16.02;;;8.00;;
33154;SDS011;19511;42.682;23.332;2022-10-16T00:21:01;14.05;;;5.97;;
33154;SDS011;19511;42.682;23.332;2022-10-16T00:23:31;13.68;;;6.72;;
33154;SDS011;19511;42.682;23.332;2022-10-16T00:25:58;11.52;;;6.68;;
33154;SDS011;19511;42.682;23.332;2022-10-16T00:28:26;16.60;;;6.45;;
33154;SDS011;19511;42.682;23.332;2022-10-16T00:30:52;16.50;;;7.85;;
33154;SDS011;19511;42.682;23.332;2022-10-16T00:33:18;13.25;;;7.25;;
33154;SDS011;19511;42.682;23.332;2022-10-16T00:35:44;12.95;;;6.65;;
33154;SDS011;19511;42.682;23.332;2022-10-16T00:38:09;19.67;;;6.13;;
33154;SDS011;19511;42.682;23.332;2022-10-16T00:40:35;12.77;;;5.97;;
33154;SDS011;19511;42.682;23.332;2022-10-16T00:43:00;12.00;;;5.85;;
33154;SDS011;19511;42.682;23.332;2022-10-16T00:45:26;16.65;;;6.97;;
33154;SDS011;19511;42.682;23.332;2022-10-16T00:47:52;19.92;;;8.13;;
33154;SDS011;19511;42.682;23.332;2022-10-16T00:50:25;13.13;;;6.18;;
33154;SDS011;19511;42.682;23.332;2022-10-16T00:52:53;14.95;;;6.75;;
33154;SDS011;19511;42.682;23.332;2022-10-16T00:55:20;11.27;;;5.00;;
33154;SDS011;19511;42.682;23.332;2022-10-16T00:57:46;16.77;;;6.90;;
33154;SDS011;19511;42.682;23.332;2022-10-16T01:00:14;13.52;;;6.55;;
33154;SDS011;19511;42.682;23.332;2022-10-16T01:02:54;16.80;;;6.65;;
33154;SDS011;19511;42.682;23.332;2022-10-16T01:08:00;11.35;;;6.57;;
33154;SDS011;19511;42.682;23.332;2022-10-16T01:13:23;15.43;;;7.57;;
33154;SDS011;19511;42.682;23.332;2022-10-16T01:18:30;14.10;;;6.60;;
33154;SDS011;19511;42.682;23.332;2022-10-16T01:21:02;12.52;;;6.35;;
33154;SDS011;19511;42.682;23.332;2022-10-16T01:28:52;22.70;;;7.47;;
33154;SDS011;19511;42.682;23.332;2022-10-16T01:31:23;14.25;;;7.63;;
33154;SDS011;19511;42.682;23.332;2022-10-16T01:34:00;11.88;;;5.22;;
33154;SDS011;19511;42.682;23.332;2022-10-16T01:36:31;16.63;;;7.72;;
33154;SDS011;19511;42.682;23.332;2022-10-16T01:39:03;11.40;;;6.53;;
33154;SDS011;19511;42.682;23.332;2022-10-16T01:41:35;16.75;;;6.25;;
33154;SDS011;19511;42.682;23.332;2022-10-16T01:44:11;18.45;;;7.03;;
33154;SDS011;19511;42.682;23.332;2022-10-16T01:46:46;22.30;;;7.00;;
33154;SDS011;19511;42.682;23.332;2022-10-16T01:49:13;32.60;;;8.35;;
33154;SDS011;19511;42.682;23.332;2022-10-16T01:51:41;16.00;;;6.93;;
33154;SDS011;19511;42.682;23.332;2022-10-16T01:54:12;17.60;;;6.88;;
33154;SDS011;19511;42.682;23.332;2022-10-16T01:56:39;14.38;;;6.25;;
33154;SDS011;19511;42.682;23.332;2022-10-16T01:59:08;10.30;;;6.22;;
33154;SDS011;19511;42.682;23.332;2022-10-16T02:01:36;10.68;;;6.28;;
33154;SDS011;19511;42.682;23.332;2022-10-16T02:04:15;11.77;;;6.47;;
33154;SDS011;19511;42.682;23.332;2022-10-16T02:06:45;23.75;;;9.25;;
33154;SDS011;19511;42.682;23.332;2022-10-16T02:09:11;15.82;;;7.47;;
33154;SDS011;19511;42.682;23.332;2022-10-16T02:11:36;13.05;;;5.82;;
33154;SDS011;19511;42.682;23.332;2022-10-16T02:14:03;17.27;;;7.85;;
33154;SDS011;19511;42.682;23.332;2022-10-16T02:16:41;17.58;;;7.75;;
33154;SDS011;19511;42.682;23.332;2022-10-16T02:19:12;14.70;;;7.03;;
33154;SDS011;19511;42.682;23.332;2022-10-16T02:27:25;14.05;;;5.93;;
33154;SDS011;19511;42.682;23.332;2022-10-16T02:30:21;18.95;;;7.38;;
33154;SDS011;19511;42.682;23.332;2022-10-16T02:32:52;9.80;;;6.68;;
33154;SDS011;19511;42.682;23.332;2022-10-16T02:35:20;12.40;;;5.93;;
33154;SDS011;19511;42.682;23.332;2022-10-16T02:37:48;12.93;;;6.20;;
33154;SDS011;19511;42.682;23.332;2022-10-16T02:40:15;11.27;;;6.10;;
33154;SDS011;19511;42.682;23.332;2022-10-16T02:42:42;17.17;;;7.18;;
33154;SDS011;19511;42.682;23.332;2022-10-16T02:45:08;18.40;;;6.82;;
33154;SDS011;19511;42.682;23.332;2022-10-16T02:47:35;11.70;;;6.57;;
33154;SDS011;19511;42.682;23.332;2022-10-16T02:50:01;10.02;;;5.72;;
33154;SDS011;19511;42.682;23.332;2022-10-16T02:52:26;11.20;;;5.20;;
33154;SDS011;19511;42.682;23.332;2022-10-16T02:54:52;10.73;;;5.95;;
33154;SDS011;19511;42.682;23.332;2022-10-16T02:57:17;13.32;;;6.32;;
33154;SDS011;19511;42.682;23.332;2022-10-16T02:59:43;10.85;;;5.50;;
33154;SDS011;19511;42.682;23.332;2022-10-16T03:02:09;7.68;;;4.75;;
33154;SDS011;19511;42.682;23.332;2022-10-16T03:04:34;13.35;;;5.78;;
33154;SDS011;19511;42.682;23.332;2022-10-16T03:07:00;8.52;;;5.20;;
33154;SDS011;19511;42.682;23.332;2022-10-16T03:09:25;15.88;;;5.82;;
33154;SDS011;19511;42.682;23.332;2022-10-16T03:11:51;13.90;;;5.95;;
33154;SDS011;19511;42.682;23.332;2022-10-16T03:14:17;9.80;;;6.55;;
33154;SDS011;19511;42.682;23.332;2022-10-16T03:16:42;9.90;;;5.15;;
33154;SDS011;19511;42.682;23.332;2022-10-16T03:19:08;11.77;;;4.97;;
33154;SDS011;19511;42.682;23.332;2022-10-16T03:21:33;7.05;;;4.00;;
33154;SDS011;19511;42.682;23.332;2022-10-16T03:23:59;11.80;;;3.70;;
33154;SDS011;19511;42.682;23.332;2022-10-16T03:26:24;6.68;;;4.63;;
33154;SDS011;19511;42.682;23.332;2022-10-16T03:28:49;7.90;;;4.50;;
33154;SDS011;19511;42.682;23.332;2022-10-16T03:31:15;9.00;;;4.38;;
33154;SDS011;19511;42.682;23.332;2022-10-16T03:33:44;12.40;;;5.95;;
33154;SDS011;19511;42.682;23.332;2022-10-16T03:36:09;7.32;;;4.18;;
33154;SDS011;19511;42.682;23.332;2022-10-16T03:38:35;8.75;;;4.20;;
33154;SDS011;19511;42.682;23.332;2022-10-16T03:41:00;7.82;;;4.82;;
33154;SDS011;19511;42.682;23.332;2022-10-16T03:43:26;7.05;;;3.78;;
33154;SDS011;19511;42.682;23.332;2022-10-16T03:45:55;7.65;;;4.03;;
33154;SDS011;19511;42.682;23.332;2022-10-16T03:48:23;7.03;;;3.90;;
33154;SDS011;19511;42.682;23.332;2022-10-16T03:50:52;6.88;;;4.13;;
33154;SDS011;19511;42.682;23.332;2022-10-16T03:53:18;9.48;;;4.65;;
33154;SDS011;19511;42.682;23.332;2022-10-16T03:55:44;8.70;;;4.45;;
33154;SDS011;19511;42.682;23.332;2022-10-16T03:58:10;5.03;;;3.17;;
33154;SDS011;19511;42.682;23.332;2022-10-16T04:00:39;12.05;;;5.85;;
33154;SDS011;19511;42.682;23.332;2022-10-16T04:03:08;8.73;;;4.55;;
33154;SDS011;19511;42.682;23.332;2022-10-16T04:05:34;7.85;;;4.53;;
33154;SDS011;19511;42.682;23.332;2022-10-16T04:07:59;7.47;;;3.88;;
33154;SDS011;19511;42.682;23.332;2022-10-16T04:10:25;7.00;;;4.15;;
33154;SDS011;19511;42.682;23.332;2022-10-16T04:12:50;4.32;;;2.60;;
33154;SDS011;19511;42.682;23.332;2022-10-16T04:15:16;8.07;;;4.15;;
33154;SDS011;19511;42.682;23.332;2022-10-16T04:17:41;5.47;;;3.28;;
33154;SDS011;19511;42.682;23.332;2022-10-16T04:20:07;3.92;;;3.25;;
33154;SDS011;19511;42.682;23.332;2022-10-16T04:22:33;8.65;;;3.40;;
33154;SDS011;19511;42.682;23.332;2022-10-16T04:24:58;6.18;;;3.65;;
33154;SDS011;19511;42.682;23.332;2022-10-16T04:27:23;5.82;;;3.63;;
33154;SDS011;19511;42.682;23.332;2022-10-16T04:29:49;30.45;;;4.30;;
33154;SDS011;19511;42.682;23.332;2022-10-16T04:32:14;7.03;;;3.90;;
33154;SDS011;19511;42.682;23.332;2022-10-16T04:34:40;10.98;;;5.45;;
33154;SDS011;19511;42.682;23.332;2022-10-16T04:37:05;4.95;;;4.20;;
33154;SDS011;19511;42.682;23.332;2022-10-16T04:39:31;5.80;;;3.65;;
33154;SDS011;19511;42.682;23.332;2022-10-16T04:41:56;9.15;;;3.50;;
33154;SDS011;19511;42.682;23.332;2022-10-16T04:44:22;7.40;;;4.40;;
33154;SDS011;19511;42.682;23.332;2022-10-16T04:46:49;9.40;;;4.40;;
33154;SDS011;19511;42.682;23.332;2022-10-16T04:49:16;7.95;;;3.65;;
33154;SDS011;19511;42.682;23.332;2022-10-16T04:51:41;6.78;;;4.05;;
33154;SDS011;19511;42.682;23.332;2022-10-16T04:54:07;9.77;;;5.25;;
33154;SDS011;19511;42.682;23.332;2022-10-16T04:56:33;5.57;;;3.38;;
33154;SDS011;19511;42.682;23.332;2022-10-16T04:59:05;7.85;;;3.95;;
33154;SDS011;19511;42.682;23.332;2022-10-16T05:01:30;9.63;;;4.10;;
33154;SDS011;19511;42.682;23.332;2022-10-16T05:03:56;7.65;;;3.90;;
33154;SDS011;19511;42.682;23.332;2022-10-16T05:06:21;8.43;;;4.20;;
33154;SDS011;19511;42.682;23.332;2022-10-16T05:08:46;14.68;;;4.30;;
33154;SDS011;19511;42.682;23.332;2022-10-16T05:11:12;11.73;;;4.68;;
33154;SDS011;19511;42.682;23.332;2022-10-16T05:13:37;5.13;;;4.22;;
33154;SDS011;19511;42.682;23.332;2022-10-16T05:16:03;9.85;;;4.30;;
33154;SDS011;19511;42.682;23.332;2022-10-16T05:18:28;8.05;;;5.65;;
33154;SDS011;19511;42.682;23.332;2022-10-16T05:20:54;7.72;;;4.72;;
33154;SDS011;19511;42.682;23.332;2022-10-16T05:23:19;11.90;;;4.85;;
33154;SDS011;19511;42.682;23.332;2022-10-16T05:25:51;6.78;;;4.20;;
33154;SDS011;19511;42.682;23.332;2022-10-16T05:28:18;13.02;;;5.00;;
33154;SDS011;19511;42.682;23.332;2022-10-16T05:30:43;13.18;;;5.38;;
33154;SDS011;19511;42.682;23.332;2022-10-16T05:33:09;11.55;;;6.20;;
33154;SDS011;19511;42.682;23.332;2022-10-16T05:35:34;9.35;;;5.88;;
33154;SDS011;19511;42.682;23.332;2022-10-16T05:38:00;9.23;;;5.20;;
33154;SDS011;19511;42.682;23.332;2022-10-16T05:40:25;8.13;;;4.65;;
33154;SDS011;19511;42.682;23.332;2022-10-16T05:42:54;5.80;;;3.55;;
33154;SDS011;19511;42.682;23.332;2022-10-16T05:45:20;13.77;;;4.90;;
33154;SDS011;19511;42.682;23.332;2022-10-16T05:47:45;10.20;;;4.93;;
33154;SDS011;19511;42.682;23.332;2022-10-16T05:50:11;8.82;;;4.57;;
33154;SDS011;19511;42.682;23.332;2022-10-16T05:52:36;7.72;;;4.47;;
33154;SDS011;19511;42.682;23.332;2022-10-16T05:55:02;6.75;;;4.30;;
33154;SDS011;19511;42.682;23.332;2022-10-16T05:57:28;11.23;;;4.15;;
33154;SDS011;19511;42.682;23.332;2022-10-16T05:59:54;21.83;;;5.68;;
33154;SDS011;19511;42.682;23.332;2022-10-16T06:02:25;8.13;;;4.15;;
33154;SDS011;19511;42.682;23.332;2022-10-16T06:04:53;6.97;;;3.95;;
33154;SDS011;19511;42.682;23.332;2022-10-16T06:07:19;12.18;;;5.47;;
33154;SDS011;19511;42.682;23.332;2022-10-16T06:09:48;7.32;;;4.43;;
33154;SDS011;19511;42.682;23.332;2022-10-16T06:12:17;11.88;;;6.10;;
33154;SDS011;19511;42.682;23.332;2022-10-16T06:14:44;19.27;;;7.03;;
33154;SDS011;19511;42.682;23.332;2022-10-16T06:17:12;14.20;;;4.93;;
33154;SDS011;19511;42.682;23.332;2022-10-16T06:19:38;14.57;;;6.68;;
33154;SDS011;19511;42.682;23.332;2022-10-16T06:22:04;11.88;;;6.35;;
33154;SDS011;19511;42.682;23.332;2022-10-16T06:24:33;10.35;;;6.18;;
33154;SDS011;19511;42.682;23.332;2022-10-16T06:27:02;15.35;;;6.13;;
33154;SDS011;19511;42.682;23.332;2022-10-16T06:29:29;9.40;;;5.75;;
33154;SDS011;19511;42.682;23.332;2022-10-16T06:31:54;8.23;;;4.97;;
33154;SDS011;19511;42.682;23.332;2022-10-16T06:34:31;9.57;;;6.28;;
33154;SDS011;19511;42.682;23.332;2022-10-16T06:36:56;17.88;;;5.20;;
33154;SDS011;19511;42.682;23.332;2022-10-16T06:39:21;8.45;;;4.32;;
33154;SDS011;19511;42.682;23.332;2022-10-16T06:41:47;16.70;;;7.95;;
33154;SDS011;19511;42.682;23.332;2022-10-16T06:44:13;12.15;;;6.13;;
33154;SDS011;19511;42.682;23.332;2022-10-16T06:46:39;34.83;;;5.22;;
33154;SDS011;19511;42.682;23.332;2022-10-16T06:49:08;10.63;;;6.55;;
33154;SDS011;19511;42.682;23.332;2022-10-16T06:51:34;9.45;;;4.68;;
33154;SDS011;19511;42.682;23.332;2022-10-16T06:54:01;8.05;;;4.85;;
33154;SDS011;19511;42.682;23.332;2022-10-16T06:56:27;10.73;;;7.72;;
33154;SDS011;19511;42.682;23.332;2022-10-16T06:58:55;9.73;;;6.25;;
33154;SDS011;19511;42.682;23.332;2022-10-16T07:01:21;13.55;;;7.35;;
33154;SDS011;19511;42.682;23.332;2022-10-16T07:03:48;19.27;;;10.98;;
33154;SDS011;19511;42.682;23.332;2022-10-16T07:06:15;20.02;;;9.20;;
33154;SDS011;19511;42.682;23.332;2022-10-16T07:08:44;12.60;;;6.88;;
33154;SDS011;19511;42.682;23.332;2022-10-16T07:11:11;26.58;;;10.85;;
33154;SDS011;19511;42.682;23.332;2022-10-16T07:13:39;21.48;;;13.73;;
33154;SDS011;19511;42.682;23.332;2022-10-16T07:16:07;14.57;;;7.43;;
33154;SDS011;19511;42.682;23.332;2022-10-16T07:18:35;16.50;;;11.02;;
33154;SDS011;19511;42.682;23.332;2022-10-16T07:21:08;47.15;;;31.55;;
33154;SDS011;19511;42.682;23.332;2022-10-16T07:23:36;23.98;;;16.45;;
33154;SDS011;19511;42.682;23.332;2022-10-16T07:26:02;56.63;;;47.08;;
33154;SDS011;19511;42.682;23.332;2022-10-16T07:28:28;135.40;;;122.50;;
33154;SDS011;19511;42.682;23.332;2022-10-16T07:30:54;13.30;;;6.85;;
33154;SDS011;19511;42.682;23.332;2022-10-16T07:33:19;13.07;;;10.82;;
33154;SDS011;19511;42.682;23.332;2022-10-16T07:35:52;23.38;;;19.15;;
33154;SDS011;19511;42.682;23.332;2022-10-16T07:38:18;38.83;;;35.33;;
33154;SDS011;19511;42.682;23.332;2022-10-16T07:40:44;36.92;;;25.42;;
33154;SDS011;19511;42.682;23.332;2022-10-16T07:43:10;40.22;;;36.70;;
33154;SDS011;19511;42.682;23.332;2022-10-16T07:45:36;170.40;;;128.80;;
33154;SDS011;19511;42.682;23.332;2022-10-16T07:48:01;30.10;;;26.83;;
33154;SDS011;19511;42.682;23.332;2022-10-16T07:50:27;72.22;;;66.30;;
33154;SDS011;19511;42.682;23.332;2022-10-16T07:52:52;79.72;;;73.28;;
33154;SDS011;19511;42.682;23.332;2022-10-16T07:55:18;357.90;;;332.70;;
33154;SDS011;19511;42.682;23.332;2022-10-16T07:57:43;148.18;;;136.60;;
33154;SDS011;19511;42.682;23.332;2022-10-16T08:00:08;301.08;;;281.33;;
33154;SDS011;19511;42.682;23.332;2022-10-16T08:02:41;264.75;;;246.80;;
33154;SDS011;19511;42.682;23.332;2022-10-16T08:05:07;1320.43;;;903.28;;
33154;SDS011;19511;42.682;23.332;2022-10-16T08:07:33;554.63;;;513.33;;
33154;SDS011;19511;42.682;23.332;2022-10-16T08:09:58;504.45;;;468.52;;
33154;SDS011;19511;42.682;23.332;2022-10-16T08:12:24;872.22;;;784.28;;
33154;SDS011;19511;42.682;23.332;2022-10-16T08:14:52;552.72;;;508.75;;
33154;SDS011;19511;42.682;23.332;2022-10-16T08:17:18;671.78;;;617.20;;
33154;SDS011;19511;42.682;23.332;2022-10-16T08:19:44;743.63;;;684.13;;
33154;SDS011;19511;42.682;23.332;2022-10-16T08:22:13;1117.40;;;948.17;;
33154;SDS011;19511;42.682;23.332;2022-10-16T08:24:40;670.97;;;615.00;;
33154;SDS011;19511;42.682;23.332;2022-10-16T08:27:06;748.50;;;684.60;;
33154;SDS011;19511;42.682;23.332;2022-10-16T08:29:31;1037.60;;;928.45;;
33154;SDS011;19511;42.682;23.332;2022-10-16T08:31:57;866.85;;;788.60;;
33154;SDS011;19511;42.682;23.332;2022-10-16T08:34:22;1163.95;;;940.17;;
33154;SDS011;19511;42.682;23.332;2022-10-16T08:36:48;1125.57;;;959.85;;
33154;SDS011;19511;42.682;23.332;2022-10-16T08:39:13;1552.15;;;999.90;;
33154;SDS011;19511;42.682;23.332;2022-10-16T08:49:41;1567.50;;;999.90;;
33154;SDS011;19511;42.682;23.332;2022-10-16T08:52:12;1999.90;;;999.90;;
33154;SDS011;19511;42.682;23.332;2022-10-16T08:54:41;1496.72;;;864.28;;
33154;SDS011;19511;42.682;23.332;2022-10-16T08:57:23;1999.90;;;999.90;;
33154;SDS011;19511;42.682;23.332;2022-10-16T08:59:52;1999.90;;;999.90;;
33154;SDS011;19511;42.682;23.332;2022-10-16T09:02:34;1999.90;;;999.90;;
33154;SDS011;19511;42.682;23.332;2022-10-16T09:10:29;1999.90;;;999.90;;
33154;SDS011;19511;42.682;23.332;2022-10-16T09:15:43;1999.90;;;999.90;;
33154;SDS011;19511;42.682;23.332;2022-10-16T09:18:29;1999.90;;;999.90;;
33154;SDS011;19511;42.682;23.332;2022-10-16T09:24:10;1524.27;;;744.13;;
33154;SDS011;19511;42.682;23.332;2022-10-16T09:26:39;1999.90;;;999.90;;
33154;SDS011;19511;42.682;23.332;2022-10-16T09:29:04;1999.90;;;999.90;;
33154;SDS011;19511;42.682;23.332;2022-10-16T09:31:30;1999.90;;;999.90;;
33154;SDS011;19511;42.682;23.332;2022-10-16T09:33:58;1999.90;;;999.90;;
33154;SDS011;19511;42.682;23.332;2022-10-16T09:36:25;1999.90;;;999.90;;
33154;SDS011;19511;42.682;23.332;2022-10-16T09:39:07;1999.90;;;999.90;;
33154;SDS011;19511;42.682;23.332;2022-10-16T09:41:34;1999.90;;;999.90;;
33154;SDS011;19511;42.682;23.332;2022-10-16T09:44:06;1999.90;;;999.90;;
33154;SDS011;19511;42.682;23.332;2022-10-16T09:47:03;1999.90;;;999.90;;
33154;SDS011;19511;42.682;23.332;2022-10-16T09:49:30;1999.90;;;999.90;;
33154;SDS011;19511;42.682;23.332;2022-10-16T09:52:03;1999.90;;;999.90;;
33154;SDS011;19511;42.682;23.332;2022-10-16T09:54:37;1999.90;;;999.90;;
33154;SDS011;19511;42.682;23.332;2022-10-16T09:57:13;1999.90;;;999.90;;
33154;SDS011;19511;42.682;23.332;2022-10-16T09:59:46;1999.90;;;999.90;;
33154;SDS011;19511;42.682;23.332;2022-10-16T10:02:13;1999.90;;;999.90;;
33154;SDS011;19511;42.682;23.332;2022-10-16T10:04:52;1999.90;;;999.90;;
33154;SDS011;19511;42.682;23.332;2022-10-16T10:07:28;1999.90;;;999.90;;
33154;SDS011;19511;42.682;23.332;2022-10-16T10:10:00;1999.90;;;999.90;;
33154;SDS011;19511;42.682;23.332;2022-10-16T10:12:30;1999.90;;;999.90;;
33154;SDS011;19511;42.682;23.332;2022-10-16T10:14:58;1999.90;;;999.90;;
33154;SDS011;19511;42.682;23.332;2022-10-16T10:17:32;1999.90;;;999.90;;
33154;SDS011;19511;42.682;23.332;2022-10-16T10:22:48;1999.90;;;999.90;;
33154;SDS011;19511;42.682;23.332;2022-10-16T10:25:17;1999.90;;;999.90;;
33154;SDS011;19511;42.682;23.332;2022-10-16T10:33:50;1999.90;;;999.90;;
33154;SDS011;19511;42.682;23.332;2022-10-16T10:39:08;1999.90;;;999.90;;
33154;SDS011;19511;42.682;23.332;2022-10-16T10:56:11;1999.90;;;999.90;;
33154;SDS011;19511;42.682;23.332;2022-10-16T11:06:48;1999.90;;;999.90;;
33154;SDS011;19511;42.682;23.332;2022-10-16T11:09:24;1999.90;;;999.90;;
33154;SDS011;19511;42.682;23.332;2022-10-16T11:11:58;1999.90;;;999.90;;
33154;SDS011;19511;42.682;23.332;2022-10-16T11:14:34;1999.90;;;999.90;;
33154;SDS011;19511;42.682;23.332;2022-10-16T11:17:15;1999.90;;;999.90;;
33154;SDS011;19511;42.682;23.332;2022-10-16T11:35:38;1999.90;;;999.90;;
33154;SDS011;19511;42.682;23.332;2022-10-16T11:38:30;1999.90;;;999.90;;
33154;SDS011;19511;42.682;23.332;2022-10-16T11:41:03;1999.90;;;999.90;;
33154;SDS011;19511;42.682;23.332;2022-10-16T11:43:41;1999.90;;;999.90;;
33154;SDS011;19511;42.682;23.332;2022-10-16T11:46:18;1999.90;;;999.90;;
33154;SDS011;19511;42.682;23.332;2022-10-16T11:56:21;1999.90;;;999.90;;
33154;SDS011;19511;42.682;23.332;2022-10-16T11:58:52;1999.90;;;999.90;;
33154;SDS011;19511;42.682;23.332;2022-10-16T12:01:40;1999.90;;;999.90;;
33154;SDS011;19511;42.682;23.332;2022-10-16T12:07:08;1999.90;;;999.90;;
33154;SDS011;19511;42.682;23.332;2022-10-16T12:09:41;1999.90;;;999.90;;
33154;SDS011;19511;42.682;23.332;2022-10-16T12:15:20;1999.90;;;999.90;;
33154;SDS011;19511;42.682;23.332;2022-10-16T12:17:48;1702.43;;;856.83;;
33154;SDS011;19511;42.682;23.332;2022-10-16T12:22:49;1329.00;;;676.45;;
33154;SDS011;19511;42.682;23.332;2022-10-16T12:28:15;1999.90;;;999.90;;
33154;SDS011;19511;42.682;23.332;2022-10-16T12:30:58;1999.90;;;999.90;;
33154;SDS011;19511;42.682;23.332;2022-10-16T12:33:34;1999.90;;;999.90;;
33154;SDS011;19511;42.682;23.332;2022-10-16T12:36:08;1999.90;;;999.90;;
33154;SDS011;19511;42.682;23.332;2022-10-16T12:38:46;1999.90;;;999.90;;
33154;SDS011;19511;42.682;23.332;2022-10-16T12:43:51;1999.90;;;999.90;;
33154;SDS011;19511;42.682;23.332;2022-10-16T12:48:43;1999.90;;;999.90;;
33154;SDS011;19511;42.682;23.332;2022-10-16T12:51:11;1999.90;;;999.90;;
33154;SDS011;19511;42.682;23.332;2022-10-16T12:53:46;1999.90;;;999.90;;
33154;SDS011;19511;42.682;23.332;2022-10-16T13:07:56;1999.90;;;999.90;;
33154;SDS011;19511;42.682;23.332;2022-10-16T13:10:42;1999.90;;;999.90;;
33154;SDS011;19511;42.682;23.332;2022-10-16T13:19:20;1999.90;;;999.90;;
33154;SDS011;19511;42.682;23.332;2022-10-16T13:22:06;1999.90;;;999.90;;
33154;SDS011;19511;42.682;23.332;2022-10-16T13:27:52;1778.55;;;819.17;;
33154;SDS011;19511;42.682;23.332;2022-10-16T13:33:36;1999.90;;;999.90;;
33154;SDS011;19511;42.682;23.332;2022-10-16T13:35:54;1999.90;;;999.90;;
33154;SDS011;19511;42.682;23.332;2022-10-16T13:38:30;1999.90;;;999.90;;
33154;SDS011;19511;42.682;23.332;2022-10-16T13:41:01;1999.90;;;999.90;;
33154;SDS011;19511;42.682;23.332;2022-10-16T13:43:32;1999.90;;;999.90;;
33154;SDS011;19511;42.682;23.332;2022-10-16T13:46:01;1999.90;;;999.90;;
33154;SDS011;19511;42.682;23.332;2022-10-16T13:48:32;1999.90;;;999.90;;
33154;SDS011;19511;42.682;23.332;2022-10-16T13:50:59;1999.90;;;999.90;;
33154;SDS011;19511;42.682;23.332;2022-10-16T13:53:26;1999.90;;;999.90;;
33154;SDS011;19511;42.682;23.332;2022-10-16T13:55:52;1999.90;;;999.90;;
33154;SDS011;19511;42.682;23.332;2022-10-16T13:58:17;1635.90;;;999.90;;
33154;SDS011;19511;42.682;23.332;2022-10-16T14:00:59;1999.90;;;999.90;;
33154;SDS011;19511;42.682;23.332;2022-10-16T14:03:29;1999.90;;;999.90;;
33154;SDS011;19511;42.682;23.332;2022-10-16T14:06:02;1981.18;;;999.90;;
33154;SDS011;19511;42.682;23.332;2022-10-16T14:08:31;1330.25;;;664.22;;
33154;SDS011;19511;42.682;23.332;2022-10-16T14:10:57;1929.65;;;999.90;;
33154;SDS011;19511;42.682;23.332;2022-10-16T14:13:39;1920.80;;;999.90;;
33154;SDS011;19511;42.682;23.332;2022-10-16T14:16:10;1627.47;;;999.90;;
33154;SDS011;19511;42.682;23.332;2022-10-16T14:18:58;1752.35;;;999.90;;
33154;SDS011;19511;42.682;23.332;2022-10-16T14:23:54;1540.75;;;999.90;;
33154;SDS011;19511;42.682;23.332;2022-10-16T14:26:22;1556.40;;;999.90;;
33154;SDS011;19511;42.682;23.332;2022-10-16T14:29:01;1572.20;;;911.55;;
33154;SDS011;19511;42.682;23.332;2022-10-16T14:31:58;1999.90;;;999.90;;
33154;SDS011;19511;42.682;23.332;2022-10-16T14:34:30;1999.90;;;999.90;;
33154;SDS011;19511;42.682;23.332;2022-10-16T14:37:01;1793.90;;;913.58;;
33154;SDS011;19511;42.682;23.332;2022-10-16T14:39:51;1999.90;;;999.90;;
33154;SDS011;19511;42.682;23.332;2022-10-16T14:42:21;1999.90;;;999.90;;
33154;SDS011;19511;42.682;23.332;2022-10-16T14:44:50;1999.90;;;999.90;;
33154;SDS011;19511;42.682;23.332;2022-10-16T14:47:26;1999.90;;;999.90;;
33154;SDS011;19511;42.682;23.332;2022-10-16T14:49:52;1467.60;;;750.10;;
33154;SDS011;19511;42.682;23.332;2022-10-16T14:52:24;1611.00;;;962.75;;
33154;SDS011;19511;42.682;23.332;2022-10-16T14:54:49;1999.90;;;999.90;;
33154;SDS011;19511;42.682;23.332;2022-10-16T14:57:20;1999.90;;;999.90;;
33154;SDS011;19511;42.682;23.332;2022-10-16T14:59:48;1999.90;;;999.90;;
33154;SDS011;19511;42.682;23.332;2022-10-16T15:04:58;1999.90;;;999.90;;
33154;SDS011;19511;42.682;23.332;2022-10-16T15:07:36;1999.90;;;999.90;;
33154;SDS011;19511;42.682;23.332;2022-10-16T15:10:02;1999.90;;;999.90;;
33154;SDS011;19511;42.682;23.332;2022-10-16T15:12:27;1999.90;;;999.90;;
33154;SDS011;19511;42.682;23.332;2022-10-16T15:14:53;1999.90;;;999.90;;
33154;SDS011;19511;42.682;23.332;2022-10-16T15:17:25;1999.90;;;999.90;;
33154;SDS011;19511;42.682;23.332;2022-10-16T15:20:00;1999.90;;;999.90;;
33154;SDS011;19511;42.682;23.332;2022-10-16T15:22:29;1999.90;;;999.90;;
33154;SDS011;19511;42.682;23.332;2022-10-16T15:24:55;1999.90;;;999.90;;
33154;SDS011;19511;42.682;23.332;2022-10-16T15:27:20;1999.90;;;999.90;;
33154;SDS011;19511;42.682;23.332;2022-10-16T15:29:49;1999.90;;;999.90;;
33154;SDS011;19511;42.682;23.332;2022-10-16T15:32:14;1999.90;;;999.90;;
33154;SDS011;19511;42.682;23.332;2022-10-16T15:34:39;1999.90;;;999.90;;
33154;SDS011;19511;42.682;23.332;2022-10-16T15:37:09;1999.90;;;999.90;;
33154;SDS011;19511;42.682;23.332;2022-10-16T15:39:38;1999.90;;;999.90;;
33154;SDS011;19511;42.682;23.332;2022-10-16T15:42:08;1999.90;;;999.90;;
33154;SDS011;19511;42.682;23.332;2022-10-16T15:44:33;1999.90;;;999.90;;
33154;SDS011;19511;42.682;23.332;2022-10-16T15:46:59;1999.90;;;999.90;;
33154;SDS011;19511;42.682;23.332;2022-10-16T15:49:26;1999.90;;;999.90;;
33154;SDS011;19511;42.682;23.332;2022-10-16T15:51:57;1999.90;;;999.90;;
33154;SDS011;19511;42.682;23.332;2022-10-16T15:54:23;1999.90;;;999.90;;
33154;SDS011;19511;42.682;23.332;2022-10-16T15:56:48;1999.90;;;999.90;;
33154;SDS011;19511;42.682;23.332;2022-10-16T15:59:14;1999.90;;;999.90;;
33154;SDS011;19511;42.682;23.332;2022-10-16T16:01:40;1999.90;;;999.90;;
33154;SDS011;19511;42.682;23.332;2022-10-16T16:04:05;1999.90;;;999.90;;
33154;SDS011;19511;42.682;23.332;2022-10-16T16:06:31;1999.90;;;999.90;;
33154;SDS011;19511;42.682;23.332;2022-10-16T16:08:57;1999.90;;;999.90;;
33154;SDS011;19511;42.682;23.332;2022-10-16T16:11:24;1999.90;;;999.90;;
33154;SDS011;19511;42.682;23.332;2022-10-16T16:13:54;1999.90;;;999.90;;
33154;SDS011;19511;42.682;23.332;2022-10-16T16:16:20;1999.90;;;999.90;;
33154;SDS011;19511;42.682;23.332;2022-10-16T16:18:45;1999.90;;;999.90;;
33154;SDS011;19511;42.682;23.332;2022-10-16T16:21:19;1999.90;;;999.90;;
33154;SDS011;19511;42.682;23.332;2022-10-16T16:23:47;1999.90;;;999.90;;
33154;SDS011;19511;42.682;23.332;2022-10-16T16:26:14;1999.90;;;999.90;;
33154;SDS011;19511;42.682;23.332;2022-10-16T16:28:50;1999.90;;;999.90;;
33154;SDS011;19511;42.682;23.332;2022-10-16T16:31:17;1999.90;;;999.90;;
33154;SDS011;19511;42.682;23.332;2022-10-16T16:33:42;1999.90;;;999.90;;